Time;durP1;ratioP1;P1;durP2;ratioP2;P2;SDS_P1;SDS_P2;PMS_P1;PMS_P2;Temp;Humidity;BMP_temperature;BMP_pressure;BME280_temperature;BME280_humidity;BME280_pressure;Samples;Min_cycle;Max_cycle;Signal;HPM_P1;HPM_P2
2021/07/19 00:00:15;;;;;;;5.30;3.90;;;16.20;99.90;;;;;;5029560;28;20039;-78
2021/07/19 00:02:41;;;;;;;6.45;3.50;;;16.20;99.90;;;;;;5027103;28;20061;-78
2021/07/19 00:05:09;;;;;;;4.40;3.42;;;16.20;99.90;;;;;;5029225;28;20022;-78
2021/07/19 00:07:35;;;;;;;4.97;3.47;;;16.20;99.90;;;;;;5029131;28;20415;-78
2021/07/19 00:10:03;;;;;;;7.63;3.53;;;16.20;99.90;;;;;;5029449;28;20032;-78
2021/07/19 00:12:28;;;;;;;5.00;3.38;;;16.10;99.90;;;;;;5027254;28;20487;-78
2021/07/19 00:14:54;;;;;;;4.68;3.47;;;16.10;99.90;;;;;;5027267;28;20037;-78
2021/07/19 00:17:20;;;;;;;4.97;3.80;;;16.10;99.90;;;;;;5005574;28;20037;-78
2021/07/19 00:19:48;;;;;;;5.15;3.65;;;16.10;99.90;;;;;;5014142;28;20507;-78
2021/07/19 00:22:14;;;;;;;5.30;3.22;;;16.10;99.90;;;;;;5030385;28;20040;-78
2021/07/19 00:24:40;;;;;;;4.32;3.30;;;16.10;99.90;;;;;;5027080;28;20033;-78
2021/07/19 00:27:06;;;;;;;4.97;3.63;;;16.20;99.90;;;;;;5026850;28;20446;-78
2021/07/19 00:29:32;;;;;;;5.32;3.22;;;16.10;99.90;;;;;;5029358;28;20064;-78
2021/07/19 00:31:59;;;;;;;6.00;3.75;;;16.20;99.90;;;;;;5012804;28;20030;-78
2021/07/19 00:34:25;;;;;;;4.53;3.45;;;16.20;99.90;;;;;;5030230;28;20125;-78
2021/07/19 00:36:54;;;;;;;4.68;3.53;;;16.10;99.90;;;;;;5027353;28;20155;-78
2021/07/19 00:39:20;;;;;;;7.55;3.72;;;16.10;99.90;;;;;;5026595;28;20034;-78
2021/07/19 00:41:46;;;;;;;4.78;3.60;;;16.10;99.90;;;;;;5005007;28;20029;-78
2021/07/19 00:44:17;;;;;;;4.50;3.42;;;16.10;99.90;;;;;;5030170;28;20112;-78
2021/07/19 00:46:44;;;;;;;6.30;3.60;;;16.00;99.90;;;;;;5029161;28;20040;-78
2021/07/19 00:49:11;;;;;;;5.85;3.38;;;16.00;99.90;;;;;;5028045;28;20029;-78
2021/07/19 00:51:38;;;;;;;4.53;3.40;;;16.00;99.90;;;;;;5024607;28;20096;-78
2021/07/19 00:54:05;;;;;;;5.10;3.38;;;16.00;99.90;;;;;;5019925;28;20527;-78
2021/07/19 00:56:31;;;;;;;4.75;3.55;;;16.00;99.90;;;;;;5029802;28;20386;-78
2021/07/19 00:58:59;;;;;;;5.45;3.72;;;16.00;99.90;;;;;;5028488;28;20031;-78
2021/07/19 01:01:28;;;;;;;4.30;3.38;;;16.10;99.90;;;;;;5024731;28;20026;-78
2021/07/19 01:03:57;;;;;;;3.90;3.45;;;16.10;99.90;;;;;;5028682;28;20032;-78
2021/07/19 01:06:23;;;;;;;4.68;3.05;;;16.10;99.90;;;;;;5029828;28;20048;-78
2021/07/19 01:08:52;;;;;;;7.75;3.60;;;16.20;99.90;;;;;;5018554;28;20038;-78
2021/07/19 01:11:19;;;;;;;4.70;3.50;;;16.10;99.90;;;;;;5027093;28;20041;-78
2021/07/19 01:13:44;;;;;;;7.00;3.42;;;16.20;99.90;;;;;;5032986;28;20036;-78
2021/07/19 01:16:12;;;;;;;6.18;3.65;;;16.20;99.90;;;;;;5015369;28;20060;-78
2021/07/19 01:18:39;;;;;;;5.05;3.80;;;16.20;99.90;;;;;;4997334;28;20065;-78
2021/07/19 01:21:45;;;;;;;3.97;3.45;;;16.30;99.90;;;;;;5031212;28;20032;-78
2021/07/19 01:24:25;;;;;;;3.97;3.42;;;16.30;99.90;;;;;;5019917;28;20025;-78
2021/07/19 01:27:00;;;;;;;7.47;3.95;;;16.40;99.90;;;;;;5025557;28;20022;-78
2021/07/19 01:29:27;;;;;;;4.50;3.42;;;16.40;99.90;;;;;;5026686;28;20036;-78
2021/07/19 01:31:54;;;;;;;5.28;3.50;;;16.40;99.90;;;;;;5030655;28;20033;-78
2021/07/19 01:34:23;;;;;;;5.78;3.22;;;16.50;99.90;;;;;;5031520;28;20029;-78
2021/07/19 01:36:53;;;;;;;6.55;3.03;;;16.50;99.90;;;;;;5025088;28;20041;-78
2021/07/19 01:39:46;;;;;;;4.10;3.00;;;16.50;99.90;;;;;;5009205;28;20029;-78
2021/07/19 01:42:14;;;;;;;5.63;3.63;;;16.50;99.90;;;;;;5031006;28;20076;-78
2021/07/19 01:44:40;;;;;;;3.83;3.10;;;16.50;99.90;;;;;;4997430;28;20029;-78
2021/07/19 01:47:10;;;;;;;4.43;3.03;;;16.50;99.90;;;;;;5034863;28;20037;-78
2021/07/19 01:49:41;;;;;;;5.75;3.20;;;16.50;99.90;;;;;;5016663;28;20042;-78
2021/07/19 01:52:08;;;;;;;3.20;2.83;;;16.50;99.90;;;;;;4999541;28;20113;-78
2021/07/19 01:54:36;;;;;;;3.25;2.63;;;16.50;99.90;;;;;;5031968;28;20049;-78
2021/07/19 01:57:06;;;;;;;3.67;2.67;;;16.50;99.90;;;;;;5016568;28;20030;-78
2021/07/19 01:59:35;;;;;;;4.65;3.10;;;16.50;99.90;;;;;;5007560;28;20025;-78
2021/07/19 02:02:19;;;;;;;2.97;2.63;;;16.40;99.90;;;;;;5030811;28;20027;-78
2021/07/19 02:04:48;;;;;;;5.68;3.35;;;16.40;99.90;;;;;;5017991;28;20951;-78
2021/07/19 02:07:17;;;;;;;4.57;3.13;;;16.40;99.90;;;;;;5017929;28;20530;-78
2021/07/19 02:09:47;;;;;;;4.78;3.20;;;16.50;99.90;;;;;;5029415;28;20034;-78
2021/07/19 02:12:36;;;;;;;4.20;2.90;;;16.40;99.90;;;;;;5017601;28;20383;-78
2021/07/19 02:15:10;;;;;;;7.38;3.25;;;16.40;99.90;;;;;;5016878;28;20038;-78
2021/07/19 02:17:37;;;;;;;3.58;3.20;;;16.40;99.90;;;;;;5033052;28;20466;-78
2021/07/19 02:20:07;;;;;;;5.07;3.22;;;16.40;99.90;;;;;;5034081;28;20097;-78
2021/07/19 02:22:33;;;;;;;5.00;3.30;;;16.30;99.90;;;;;;5014793;28;20442;-78
2021/07/19 02:25:03;;;;;;;4.90;3.30;;;16.30;99.90;;;;;;5016885;28;20057;-78
2021/07/19 02:27:40;;;;;;;4.03;3.03;;;16.30;99.90;;;;;;5009186;28;20036;-78
2021/07/19 02:30:08;;;;;;;3.90;2.80;;;16.30;99.90;;;;;;5016789;28;20025;-78
2021/07/19 02:32:40;;;;;;;4.97;3.17;;;16.30;99.90;;;;;;5021089;28;20026;-78
2021/07/19 02:35:09;;;;;;;6.80;3.17;;;16.20;99.90;;;;;;5017232;28;20052;-78
2021/07/19 02:37:44;;;;;;;4.57;2.95;;;16.20;99.90;;;;;;5033268;28;20049;-78
2021/07/19 02:40:22;;;;;;;3.95;3.42;;;16.20;99.90;;;;;;5031841;28;20511;-78
2021/07/19 02:42:55;;;;;;;3.75;3.22;;;16.20;99.90;;;;;;5028871;28;20037;-79
2021/07/19 02:45:24;;;;;;;4.45;3.40;;;16.20;99.90;;;;;;5032546;28;20029;-78
2021/07/19 02:47:54;;;;;;;5.72;3.70;;;16.20;99.90;;;;;;5035452;28;20022;-78
2021/07/19 02:50:28;;;;;;;4.10;3.03;;;16.20;99.90;;;;;;5013875;28;20443;-78
2021/07/19 02:52:58;;;;;;;5.55;3.70;;;16.20;99.90;;;;;;5015589;28;20091;-78
2021/07/19 02:55:26;;;;;;;4.82;3.42;;;16.20;99.90;;;;;;5034176;28;20026;-78
2021/07/19 02:57:52;;;;;;;4.22;3.38;;;16.20;99.90;;;;;;5033248;28;20025;-78
2021/07/19 03:00:19;;;;;;;4.35;3.47;;;16.20;99.90;;;;;;5015311;28;20562;-78
2021/07/19 03:02:56;;;;;;;4.97;3.75;;;16.20;99.90;;;;;;5010068;28;20022;-78
2021/07/19 03:05:27;;;;;;;5.13;3.38;;;16.30;99.90;;;;;;5033056;28;20053;-78
2021/07/19 03:07:57;;;;;;;4.22;3.75;;;16.30;99.90;;;;;;5026265;28;20080;-78
2021/07/19 03:10:46;;;;;;;4.63;3.38;;;16.30;99.90;;;;;;5022718;28;20487;-78
2021/07/19 03:13:19;;;;;;;3.75;3.20;;;16.30;99.90;;;;;;5032145;28;20030;-78
2021/07/19 03:15:47;;;;;;;9.20;3.25;;;16.30;99.90;;;;;;5044405;23;20095;-84
2021/07/19 03:18:13;;;;;;;5.25;3.90;;;16.30;99.90;;;;;;5011359;28;20065;-85
2021/07/19 03:20:41;;;;;;;5.32;4.00;;;16.40;99.90;;;;;;5013650;28;20083;-86
2021/07/19 03:23:13;;;;;;;4.72;3.55;;;16.40;99.90;;;;;;4995377;28;20041;-85
2021/07/19 03:25:43;;;;;;;7.32;4.80;;;16.40;99.90;;;;;;5007835;28;20038;-85
2021/07/19 03:28:09;;;;;;;4.70;3.75;;;16.40;99.90;;;;;;4979043;28;20104;-84
2021/07/19 03:30:37;;;;;;;4.35;3.42;;;16.50;99.90;;;;;;4994002;28;20081;-86
2021/07/19 03:33:03;;;;;;;3.95;3.33;;;16.50;99.90;;;;;;4994872;28;20416;-85
2021/07/19 03:35:34;;;;;;;4.35;3.50;;;16.50;99.90;;;;;;5010946;28;20104;-85
2021/07/19 03:38:03;;;;;;;7.47;4.03;;;16.50;99.90;;;;;;4994989;28;20451;-84
2021/07/19 03:40:36;;;;;;;5.20;3.88;;;16.50;99.90;;;;;;5010007;28;20586;-85
2021/07/19 03:43:03;;;;;;;3.78;3.15;;;16.50;99.90;;;;;;5011016;28;20038;-85
2021/07/19 03:45:30;;;;;;;5.90;3.50;;;16.50;99.90;;;;;;4993825;28;20037;-85
2021/07/19 03:47:57;;;;;;;6.40;3.95;;;16.50;99.90;;;;;;4994594;28;20032;-85
2021/07/19 03:50:27;;;;;;;6.78;3.58;;;16.50;99.90;;;;;;4993986;28;20048;-85
2021/07/19 03:52:53;;;;;;;5.93;3.58;;;16.50;99.90;;;;;;4978757;28;20061;-85
2021/07/19 03:55:27;;;;;;;4.72;3.17;;;16.50;99.90;;;;;;4989882;28;20117;-85
2021/07/19 03:57:53;;;;;;;4.70;3.60;;;16.50;99.90;;;;;;4994833;28;20459;-86
2021/07/19 04:00:23;;;;;;;5.13;3.50;;;16.50;99.90;;;;;;4994175;28;20026;-85
2021/07/19 04:03:04;;;;;;;3.85;3.47;;;16.50;99.90;;;;;;4981102;28;20085;-85
2021/07/19 04:05:40;;;;;;;6.07;3.15;;;16.50;99.90;;;;;;4998989;28;20057;-85
2021/07/19 04:08:13;;;;;;;4.90;2.78;;;16.50;99.90;;;;;;4982213;28;20034;-84
2021/07/19 04:10:40;;;;;;;3.95;3.08;;;16.50;99.90;;;;;;5009481;28;20037;-85
2021/07/19 04:13:10;;;;;;;4.93;2.78;;;16.50;99.90;;;;;;4994368;28;20084;-85
2021/07/19 04:15:42;;;;;;;3.25;2.80;;;16.40;99.90;;;;;;4977411;28;20041;-84
2021/07/19 04:18:10;;;;;;;3.13;2.65;;;16.40;99.90;;;;;;5011658;28;20428;-85
2021/07/19 04:20:48;;;;;;;3.33;2.30;;;16.40;99.90;;;;;;4994569;28;20116;-85
2021/07/19 04:23:15;;;;;;;3.88;2.80;;;16.30;99.90;;;;;;4994513;28;20032;-85
2021/07/19 04:25:44;;;;;;;3.88;2.90;;;16.30;99.90;;;;;;5009933;28;20033;-85
2021/07/19 04:28:13;;;;;;;4.93;2.65;;;16.30;99.90;;;;;;4994408;28;20030;-85
2021/07/19 04:30:40;;;;;;;5.10;2.85;;;16.20;99.90;;;;;;4993075;28;20120;-84
2021/07/19 04:33:07;;;;;;;5.80;3.00;;;16.20;99.90;;;;;;4992572;28;20113;-85
2021/07/19 04:35:34;;;;;;;3.92;2.97;;;16.20;99.90;;;;;;4993585;28;20130;-84
2021/07/19 04:37:59;;;;;;;3.20;2.60;;;16.20;99.90;;;;;;5009232;28;20030;-85
2021/07/19 04:40:27;;;;;;;3.28;2.60;;;16.20;99.90;;;;;;4973211;28;20033;-85
2021/07/19 04:42:53;;;;;;;4.07;3.42;;;16.20;99.90;;;;;;4989850;28;20030;-85
2021/07/19 04:45:22;;;;;;;4.85;2.90;;;16.30;99.90;;;;;;4993231;28;20123;-85
2021/07/19 04:47:48;;;;;;;3.72;2.80;;;16.30;99.90;;;;;;5009577;28;20030;-85
2021/07/19 04:50:15;;;;;;;4.40;3.05;;;16.30;99.90;;;;;;4976953;28;20033;-85
2021/07/19 04:53:03;;;;;;;4.80;3.05;;;16.30;99.90;;;;;;4983481;28;20040;-85
2021/07/19 04:55:31;;;;;;;3.55;3.10;;;16.40;99.90;;;;;;4977209;28;20553;-84
2021/07/19 04:57:58;;;;;;;8.00;3.50;;;16.50;99.90;;;;;;4974494;28;20031;-85
2021/07/19 05:00:25;;;;;;;4.53;3.20;;;16.50;99.90;;;;;;5007229;28;20034;-85
2021/07/19 05:02:53;;;;;;;3.90;3.05;;;16.60;99.90;;;;;;4988153;28;20037;-85
2021/07/19 05:05:20;;;;;;;4.85;3.30;;;16.70;99.90;;;;;;4976604;28;20041;-85
2021/07/19 05:07:47;;;;;;;4.55;3.38;;;16.80;99.90;;;;;;4993408;28;20030;-85
2021/07/19 05:10:15;;;;;;;3.58;2.90;;;16.90;99.90;;;;;;5010330;28;20045;-86
2021/07/19 05:12:44;;;;;;;5.03;3.85;;;17.00;99.90;;;;;;4993467;28;20038;-86
2021/07/19 05:15:13;;;;;;;4.28;3.55;;;17.10;99.90;;;;;;4993317;28;20026;-84
2021/07/19 05:17:40;;;;;;;5.78;3.58;;;17.20;99.90;;;;;;4984089;28;20038;-85
2021/07/19 05:20:15;;;;;;;5.57;3.60;;;17.30;99.90;;;;;;4993577;28;20161;-85
2021/07/19 05:22:46;;;;;;;5.03;3.60;;;17.40;99.90;;;;;;5007449;28;20030;-85
2021/07/19 05:25:16;;;;;;;6.00;4.45;;;17.50;99.90;;;;;;4989711;28;20118;-86
2021/07/19 05:28:05;;;;;;;6.55;4.93;;;17.60;99.90;;;;;;4982382;28;20034;-84
2021/07/19 05:30:38;;;;;;;6.90;4.80;;;17.70;99.90;;;;;;4996680;28;20464;-86
2021/07/19 05:33:04;;;;;;;7.65;4.80;;;17.80;99.90;;;;;;4997663;28;20061;-86
2021/07/19 05:35:30;;;;;;;8.73;5.18;;;18.00;99.90;;;;;;5005049;28;20030;-87
2021/07/19 05:37:55;;;;;;;9.27;5.07;;;18.20;99.90;;;;;;5029740;28;20037;-85
2021/07/19 05:40:21;;;;;;;6.38;4.50;;;18.40;99.90;;;;;;5012537;28;20030;-85
2021/07/19 05:42:47;;;;;;;5.65;4.60;;;18.50;99.90;;;;;;5004749;28;20029;-85
2021/07/19 05:45:14;;;;;;;7.30;5.05;;;18.60;99.90;;;;;;5002365;28;20493;-84
2021/07/19 05:47:40;;;;;;;8.23;6.43;;;18.70;99.90;;;;;;4997033;28;20554;-85
2021/07/19 05:50:07;;;;;;;10.07;7.03;;;18.70;99.90;;;;;;4997568;28;20038;-86
2021/07/19 05:52:34;;;;;;;8.50;5.97;;;18.70;99.90;;;;;;5012502;28;20022;-85
2021/07/19 05:55:01;;;;;;;11.15;7.10;;;18.70;99.90;;;;;;5002083;28;20443;-86
2021/07/19 05:57:27;;;;;;;9.55;6.93;;;18.70;99.90;;;;;;4990594;28;20575;-85
2021/07/19 05:59:56;;;;;;;12.57;7.43;;;18.70;99.90;;;;;;4996329;28;20022;-86
2021/07/19 06:02:23;;;;;;;11.27;7.55;;;18.70;99.90;;;;;;4996080;28;20032;-86
2021/07/19 06:04:49;;;;;;;12.82;7.57;;;18.70;99.90;;;;;;4996228;28;20500;-85
2021/07/19 06:07:15;;;;;;;12.68;7.82;;;18.80;99.90;;;;;;5012580;28;20036;-86
2021/07/19 06:09:41;;;;;;;11.68;7.97;;;18.80;99.90;;;;;;4995962;28;20042;-86
2021/07/19 06:12:07;;;;;;;10.43;7.85;;;18.90;99.90;;;;;;4996270;28;20034;-85
2021/07/19 06:14:33;;;;;;;10.68;6.95;;;18.80;99.90;;;;;;5016121;28;20033;-84
2021/07/19 06:17:00;;;;;;;14.43;8.13;;;19.00;99.90;;;;;;5012652;28;20084;-88
2021/07/19 06:19:25;;;;;;;9.63;7.63;;;19.10;99.90;;;;;;5029117;28;20026;-86
2021/07/19 06:21:51;;;;;;;10.00;7.40;;;19.30;99.90;;;;;;4996678;28;20030;-84
2021/07/19 06:24:17;;;;;;;14.00;7.88;;;19.60;99.90;;;;;;4987685;28;20030;-86
2021/07/19 06:26:43;;;;;;;9.65;6.45;;;20.20;99.90;;;;;;4966679;28;20030;-84
2021/07/19 06:29:09;;;;;;;9.68;6.57;;;20.70;99.90;;;;;;4995697;28;20233;-85
2021/07/19 06:31:34;;;;;;;8.32;6.45;;;21.30;99.90;;;;;;4999528;28;20077;-84
2021/07/19 06:34:00;;;;;;;10.18;6.85;;;21.60;99.90;;;;;;5017650;28;20041;-85
2021/07/19 06:36:26;;;;;;;9.63;7.22;;;21.50;99.90;;;;;;4999947;28;20049;-83
2021/07/19 06:38:52;;;;;;;9.43;6.88;;;21.30;99.90;;;;;;4984689;28;20030;-83
2021/07/19 06:41:18;;;;;;;9.68;7.18;;;21.30;99.90;;;;;;5012450;28;20488;-83
2021/07/19 06:43:43;;;;;;;9.45;6.93;;;21.40;99.90;;;;;;4978607;28;20072;-85
2021/07/19 06:46:10;;;;;;;8.98;7.20;;;21.60;99.90;;;;;;4987700;28;20034;-85
2021/07/19 06:48:36;;;;;;;10.55;7.53;;;21.80;99.90;;;;;;5012569;28;20095;-87
2021/07/19 06:51:02;;;;;;;9.73;6.78;;;22.00;99.90;;;;;;4981891;28;20044;-85
2021/07/19 06:53:29;;;;;;;8.75;6.50;;;22.20;99.90;;;;;;5012045;28;20033;-85
2021/07/19 06:55:55;;;;;;;8.65;6.35;;;22.10;99.90;;;;;;4974518;28;20049;-85
2021/07/19 06:58:21;;;;;;;8.80;5.45;;;21.90;99.90;;;;;;5001642;28;20030;-84
2021/07/19 07:00:48;;;;;;;9.40;6.57;;;21.80;99.90;;;;;;4978678;28;20034;-86
2021/07/19 07:03:14;;;;;;;11.50;6.95;;;21.70;99.90;;;;;;4988781;28;20034;-84
2021/07/19 07:05:40;;;;;;;7.82;6.03;;;21.60;99.90;;;;;;4983378;28;20053;-85
2021/07/19 07:08:05;;;;;;;9.77;6.70;;;21.50;99.90;;;;;;4980731;28;20026;-83
2021/07/19 07:10:31;;;;;;;7.75;5.55;;;21.30;99.90;;;;;;5009753;28;20057;-87
2021/07/19 07:12:57;;;;;;;11.00;6.85;;;21.10;99.90;;;;;;4973090;28;20107;-85
2021/07/19 07:15:23;;;;;;;8.35;5.80;;;21.10;99.90;;;;;;4985826;28;20437;-83
2021/07/19 07:17:52;;;;;;;8.85;5.97;;;21.00;99.90;;;;;;4995432;28;20108;-85
2021/07/19 07:20:19;;;;;;;10.25;6.50;;;20.90;99.90;;;;;;4987177;28;20500;-85
2021/07/19 07:22:45;;;;;;;10.90;7.05;;;20.90;99.90;;;;;;5033485;28;20041;-87
2021/07/19 07:25:11;;;;;;;7.55;5.90;;;20.90;99.90;;;;;;5010681;28;20387;-84
2021/07/19 07:27:38;;;;;;;9.98;6.32;;;20.90;99.90;;;;;;5008234;28;20104;-85
2021/07/19 07:30:07;;;;;;;10.55;6.55;;;20.90;99.90;;;;;;5011311;28;20391;-84
2021/07/19 07:32:36;;;;;;;9.15;5.70;;;20.90;99.90;;;;;;4993490;28;20034;-86
2021/07/19 07:35:03;;;;;;;10.00;6.70;;;20.90;99.90;;;;;;5011951;28;20033;-85
2021/07/19 07:37:31;;;;;;;7.80;6.30;;;20.90;99.90;;;;;;4980257;28;20080;-85
2021/07/19 07:39:56;;;;;;;9.38;6.60;;;21.00;99.90;;;;;;4994144;28;20375;-85
2021/07/19 07:42:23;;;;;;;11.45;6.60;;;21.30;99.90;;;;;;5011566;28;20041;-85
2021/07/19 07:44:49;;;;;;;8.00;5.70;;;21.70;99.90;;;;;;4993838;28;20126;-86
2021/07/19 07:47:16;;;;;;;8.77;5.22;;;21.90;99.90;;;;;;5013334;28;20079;-85
2021/07/19 07:49:42;;;;;;;7.43;5.35;;;22.10;99.90;;;;;;4980315;28;20377;-85
2021/07/19 07:52:09;;;;;;;10.00;6.03;;;22.40;99.90;;;;;;4983376;28;20046;-86
2021/07/19 07:54:35;;;;;;;9.60;5.43;;;22.70;99.90;;;;;;5013856;28;20030;-85
2021/07/19 07:57:02;;;;;;;8.23;5.18;;;22.70;99.90;;;;;;4997706;28;20034;-87
2021/07/19 07:59:29;;;;;;;7.13;5.20;;;22.70;99.90;;;;;;5003273;28;20037;-83
2021/07/19 08:01:58;;;;;;;6.60;5.15;;;22.90;99.90;;;;;;5028501;28;20468;-84
2021/07/19 08:04:24;;;;;;;6.22;4.47;;;23.10;99.90;;;;;;5005338;28;20030;-85
2021/07/19 08:06:52;;;;;;;9.50;5.35;;;23.40;99.90;;;;;;5008238;28;20034;-81
2021/07/19 08:09:18;;;;;;;7.63;5.55;;;23.40;99.90;;;;;;4991297;28;20052;-86
2021/07/19 08:11:44;;;;;;;11.02;5.22;;;23.80;99.90;;;;;;4979769;28;20580;-87
2021/07/19 08:14:10;;;;;;;7.95;4.50;;;24.00;99.90;;;;;;4993440;28;20022;-81
2021/07/19 08:16:36;;;;;;;7.75;5.03;;;24.40;99.90;;;;;;5012402;28;20030;-80
2021/07/19 08:19:08;;;;;;;4.88;4.28;;;24.70;99.90;;;;;;4995846;28;20025;-85
2021/07/19 08:21:37;;;;;;;7.95;5.35;;;24.80;99.90;;;;;;5009846;28;20030;-82
2021/07/19 08:24:04;;;;;;;6.60;4.90;;;24.80;99.90;;;;;;4978036;28;20100;-82
2021/07/19 08:26:29;;;;;;;5.88;4.38;;;25.00;99.90;;;;;;5009587;28;20079;-82
2021/07/19 08:28:56;;;;;;;7.97;4.13;;;25.40;99.90;;;;;;4993810;28;20510;-82
2021/07/19 08:31:23;;;;;;;9.05;4.70;;;25.60;99.90;;;;;;4974312;28;20881;-82
2021/07/19 08:33:49;;;;;;;5.82;4.07;;;25.50;99.90;;;;;;4976416;28;20034;-82
2021/07/19 08:36:15;;;;;;;7.57;4.55;;;25.50;99.90;;;;;;5006904;28;20034;-82
2021/07/19 08:38:41;;;;;;;6.50;4.53;;;25.30;99.90;;;;;;4981568;28;20172;-81
2021/07/19 08:41:07;;;;;;;8.75;5.05;;;25.00;99.90;;;;;;4991530;28;20026;-83
2021/07/19 08:43:35;;;;;;;8.15;4.30;;;24.80;99.90;;;;;;4982313;28;20566;-84
2021/07/19 08:46:01;;;;;;;7.07;4.18;;;24.50;99.90;;;;;;4995215;28;20124;-81
2021/07/19 08:48:28;;;;;;;8.65;4.57;;;24.60;99.90;;;;;;5016782;28;20061;-85
2021/07/19 08:50:54;;;;;;;6.40;3.97;;;24.60;99.90;;;;;;5015131;28;20133;-84
2021/07/19 08:53:20;;;;;;;7.00;4.63;;;24.50;99.90;;;;;;5010953;28;20038;-81
2021/07/19 08:55:50;;;;;;;5.45;4.30;;;24.30;99.90;;;;;;5005668;28;20038;-85
2021/07/19 08:58:16;;;;;;;7.80;4.38;;;24.10;99.90;;;;;;4992111;28;20534;-83
2021/07/19 09:00:42;;;;;;;8.43;4.03;;;24.00;99.90;;;;;;5003224;28;20027;-80
2021/07/19 09:03:09;;;;;;;5.18;3.88;;;24.20;99.90;;;;;;5012172;28;20026;-80
2021/07/19 09:05:37;;;;;;;3.88;3.20;;;24.70;99.90;;;;;;4991632;28;20064;-81
2021/07/19 09:08:07;;;;;;;5.55;4.47;;;25.20;99.90;;;;;;5004733;28;20042;-81
2021/07/19 09:10:33;;;;;;;5.50;3.53;;;25.20;99.90;;;;;;4972964;28;20026;-81
2021/07/19 09:13:00;;;;;;;6.43;4.22;;;25.10;99.90;;;;;;5007658;28;20472;-81
2021/07/19 09:15:35;;;;;;;4.15;3.75;;;25.10;99.90;;;;;;5021542;28;20045;-82
2021/07/19 09:18:05;;;;;;;4.63;3.30;;;25.10;99.90;;;;;;5006200;28;20045;-81
2021/07/19 09:20:39;;;;;;;3.85;3.20;;;24.90;99.90;;;;;;5000405;28;20473;-84
2021/07/19 09:23:11;;;;;;;4.97;3.85;;;24.70;99.90;;;;;;5004347;28;20030;-83
2021/07/19 09:25:37;;;;;;;4.43;3.65;;;24.50;99.90;;;;;;5003821;28;20129;-84
2021/07/19 09:28:05;;;;;;;5.28;3.85;;;24.40;99.90;;;;;;5009543;28;20026;-83
2021/07/19 09:30:33;;;;;;;3.95;3.60;;;24.40;99.90;;;;;;5003065;28;20076;-82
2021/07/19 09:33:02;;;;;;;4.53;3.85;;;24.40;99.90;;;;;;5006054;28;20531;-82
2021/07/19 09:35:30;;;;;;;5.28;3.58;;;24.60;99.90;;;;;;5005370;28;20026;-81
2021/07/19 09:38:08;;;;;;;6.05;4.18;;;24.70;99.90;;;;;;5004065;28;20049;-81
2021/07/19 09:40:36;;;;;;;4.30;3.72;;;24.70;99.90;;;;;;4999651;28;20089;-82
2021/07/19 09:43:16;;;;;;;5.47;4.60;;;24.80;99.90;;;;;;4996984;28;20026;-82
2021/07/19 09:45:42;;;;;;;8.80;5.00;;;24.80;99.90;;;;;;5004277;28;20026;-82
2021/07/19 09:48:09;;;;;;;5.60;4.88;;;24.80;99.90;;;;;;5004625;28;20034;-82
2021/07/19 09:50:44;;;;;;;6.93;4.68;;;24.70;99.90;;;;;;5002806;28;20037;-83
2021/07/19 09:53:11;;;;;;;9.75;4.20;;;24.70;99.90;;;;;;5002694;28;20699;-84
2021/07/19 09:55:37;;;;;;;6.13;4.72;;;24.70;99.90;;;;;;4988817;28;20022;-84
2021/07/19 09:58:04;;;;;;;6.25;4.53;;;24.70;99.90;;;;;;4988730;28;20076;-84
2021/07/19 10:00:32;;;;;;;7.32;4.47;;;24.70;99.90;;;;;;4993162;28;20026;-84
2021/07/19 10:02:58;;;;;;;5.28;3.88;;;24.70;99.90;;;;;;5004229;28;20400;-82
2021/07/19 10:05:29;;;;;;;5.57;4.13;;;24.60;99.90;;;;;;5007365;28;20562;-83
2021/07/19 10:07:59;;;;;;;4.90;4.07;;;24.60;99.90;;;;;;5008307;28;20519;-86
2021/07/19 10:10:39;;;;;;;7.10;4.43;;;24.40;99.90;;;;;;5007592;28;20064;-86
2021/07/19 10:13:09;;;;;;;6.38;4.25;;;24.30;99.90;;;;;;4999965;28;20575;-83
2021/07/19 10:15:39;;;;;;;5.93;4.32;;;24.10;99.90;;;;;;4988127;28;20116;-85
2021/07/19 10:18:10;;;;;;;5.40;4.43;;;23.90;99.90;;;;;;5022249;28;20484;-84
2021/07/19 10:20:38;;;;;;;6.20;4.35;;;23.60;99.90;;;;;;4999360;28;20034;-87
2021/07/19 10:23:11;;;;;;;6.68;4.85;;;23.60;99.90;;;;;;4997227;28;20165;-85
2021/07/19 10:25:38;;;;;;;9.43;4.35;;;23.60;99.90;;;;;;4999025;28;20032;-86
2021/07/19 10:28:06;;;;;;;5.40;3.83;;;23.70;99.90;;;;;;5004005;28;20252;-85
2021/07/19 10:30:32;;;;;;;6.68;4.30;;;23.60;99.90;;;;;;5009351;28;20110;-91
2021/07/19 10:32:59;;;;;;;6.75;4.38;;;23.50;99.90;;;;;;5009127;28;20568;-84
2021/07/19 10:35:29;;;;;;;10.40;5.30;;;23.50;99.90;;;;;;5008611;28;20037;-84
2021/07/19 10:38:10;;;;;;;7.68;4.13;;;23.50;99.90;;;;;;5007562;28;20042;-87
2021/07/19 10:40:38;;;;;;;5.68;4.20;;;23.40;99.90;;;;;;5004548;28;20026;-88
2021/07/19 10:43:07;;;;;;;5.60;4.35;;;23.50;99.90;;;;;;5017316;28;20491;-88
2021/07/19 10:46:27;;;;;;;5.90;4.43;;;23.50;99.90;;;;;;4999275;28;20037;-87
2021/07/19 10:49:27;;;;;;;6.68;4.50;;;23.50;99.90;;;;;;5005220;28;20076;-86
2021/07/19 10:51:53;;;;;;;12.40;7.15;;;23.50;99.90;;;;;;5004560;28;20029;-83
2021/07/19 10:54:21;;;;;;;17.23;10.10;;;23.40;99.90;;;;;;5002007;28;20044;-86
2021/07/19 10:56:51;;;;;;;12.95;8.88;;;23.40;99.90;;;;;;5008129;28;20033;-86
2021/07/19 10:59:37;;;;;;;9.30;5.68;;;23.30;99.90;;;;;;5014581;28;20472;-89
2021/07/19 11:02:27;;;;;;;8.23;5.00;;;23.30;99.90;;;;;;5000845;28;20435;-86
2021/07/19 11:04:53;;;;;;;8.40;5.22;;;23.30;99.90;;;;;;5007050;28;20034;-88
2021/07/19 11:07:19;;;;;;;7.65;5.13;;;23.40;99.90;;;;;;4977024;28;20472;-85
2021/07/19 11:09:45;;;;;;;6.47;4.63;;;23.30;99.90;;;;;;4992323;28;20033;-85
2021/07/19 11:12:18;;;;;;;9.25;5.60;;;23.30;99.90;;;;;;4974330;28;20092;-85
2021/07/19 11:14:57;;;;;;;8.85;5.53;;;23.30;99.90;;;;;;5005450;28;20040;-89
2021/07/19 11:17:28;;;;;;;6.95;5.28;;;23.30;99.90;;;;;;4990194;28;20413;-85
2021/07/19 11:19:56;;;;;;;15.70;6.60;;;23.50;99.90;;;;;;4989630;28;20049;-84
2021/07/19 11:22:27;;;;;;;8.82;5.22;;;23.40;99.90;;;;;;4989355;28;20388;-88
2021/07/19 11:24:53;;;;;;;12.93;5.80;;;23.30;99.90;;;;;;5002528;28;20125;-84
2021/07/19 11:27:49;;;;;;;9.52;6.65;;;23.20;99.90;;;;;;4987280;28;20152;-86
2021/07/19 11:30:23;;;;;;;9.98;6.13;;;23.10;99.90;;;;;;4982565;28;20042;-89
2021/07/19 11:32:50;;;;;;;8.32;5.93;;;23.10;99.90;;;;;;5000956;28;20034;-86
2021/07/19 11:35:21;;;;;;;9.15;6.03;;;23.00;99.90;;;;;;5003384;28;20035;-86
2021/07/19 11:37:50;;;;;;;8.27;5.93;;;23.00;99.90;;;;;;5009921;28;20070;-86
2021/07/19 11:40:38;;;;;;;10.13;6.18;;;23.10;99.90;;;;;;5012762;28;20366;-84
2021/07/19 11:43:12;;;;;;;7.70;5.70;;;23.30;99.90;;;;;;5009192;28;20035;-85
2021/07/19 11:45:40;;;;;;;7.60;5.43;;;23.30;99.90;;;;;;4989500;28;20177;-86
2021/07/19 11:48:06;;;;;;;10.38;6.32;;;23.30;99.90;;;;;;4972719;28;20038;-88
2021/07/19 11:50:34;;;;;;;10.70;5.97;;;23.30;99.90;;;;;;5003553;28;20030;-87
2021/07/19 11:53:00;;;;;;;7.88;5.43;;;23.30;99.90;;;;;;5008969;28;20105;-84
2021/07/19 11:55:27;;;;;;;8.90;5.90;;;23.30;99.90;;;;;;4991726;28;20097;-90
2021/07/19 11:58:00;;;;;;;11.45;6.18;;;23.40;99.90;;;;;;5004542;28;20041;-85
2021/07/19 12:00:29;;;;;;;8.25;5.97;;;23.50;99.90;;;;;;4959125;28;20034;-85
2021/07/19 12:03:07;;;;;;;8.23;6.30;;;23.60;99.90;;;;;;4997412;28;20124;-86
2021/07/19 12:05:34;;;;;;;13.52;6.55;;;23.80;99.90;;;;;;4991532;28;20037;-85
2021/07/19 12:08:06;;;;;;;8.82;6.28;;;24.00;99.90;;;;;;5000466;28;20029;-86
2021/07/19 12:10:34;;;;;;;10.02;6.15;;;24.20;99.90;;;;;;4984762;28;20104;-85
2021/07/19 12:13:14;;;;;;;10.65;6.57;;;24.40;99.90;;;;;;4983333;28;20081;-84
2021/07/19 12:15:53;;;;;;;7.85;5.75;;;24.30;99.90;;;;;;5020513;28;20038;-86
2021/07/19 12:18:33;;;;;;;8.48;6.00;;;24.10;99.90;;;;;;5012803;28;20050;-87
2021/07/19 12:21:05;;;;;;;10.10;6.22;;;24.20;99.90;;;;;;4988999;28;20030;-89
2021/07/19 12:23:41;;;;;;;10.52;6.35;;;24.40;99.90;;;;;;4996250;28;20027;-87
2021/07/19 12:26:07;;;;;;;11.60;6.65;;;24.60;99.90;;;;;;5002810;28;20061;-86
2021/07/19 12:28:33;;;;;;;8.13;5.95;;;24.70;99.90;;;;;;4986715;28;20508;-84
2021/07/19 12:31:14;;;;;;;7.97;6.10;;;24.90;99.90;;;;;;4989051;28;20042;-85
2021/07/19 12:33:40;;;;;;;10.13;5.85;;;25.00;99.90;;;;;;5003102;28;20531;-89
2021/07/19 12:36:06;;;;;;;9.48;5.65;;;25.20;99.90;;;;;;4989864;28;20037;-85
2021/07/19 12:38:32;;;;;;;10.10;6.03;;;25.40;99.90;;;;;;4977844;28;20641;-83
2021/07/19 12:40:57;;;;;;;11.75;7.18;;;25.50;99.90;;;;;;4986975;28;20117;-86
2021/07/19 12:43:23;;;;;;;9.57;5.80;;;25.40;99.90;;;;;;4972920;28;20580;-86
2021/07/19 12:45:50;;;;;;;8.73;5.53;;;25.40;99.90;;;;;;5000209;28;20629;-85
2021/07/19 12:48:16;;;;;;;8.52;5.43;;;25.30;99.90;;;;;;4975127;28;20057;-89
2021/07/19 12:50:42;;;;;;;8.55;5.55;;;25.30;99.90;;;;;;4970636;28;20454;-85
2021/07/19 12:53:12;;;;;;;8.18;5.50;;;25.30;99.90;;;;;;4984897;28;20057;-85
2021/07/19 12:55:38;;;;;;;9.27;5.93;;;25.40;99.90;;;;;;5005778;28;20495;-89